sensor_id;sensor_type;location;lat;lon;timestamp;P1;durP1;ratioP1;P2;durP2;ratioP2
58252;SDS011;44050;48.884;8.762;2023-02-12T00:02:10;9.07;;;5.95;;
58252;SDS011;44050;48.884;8.762;2023-02-12T00:04:41;7.18;;;6.03;;
58252;SDS011;44050;48.884;8.762;2023-02-12T00:07:11;4.20;;;3.55;;
58252;SDS011;44050;48.884;8.762;2023-02-12T00:09:42;6.50;;;3.47;;
58252;SDS011;44050;48.884;8.762;2023-02-12T00:12:13;6.28;;;5.43;;
58252;SDS011;44050;48.884;8.762;2023-02-12T00:14:44;4.87;;;3.73;;
58252;SDS011;44050;48.884;8.762;2023-02-12T00:17:15;7.93;;;6.35;;
58252;SDS011;44050;48.884;8.762;2023-02-12T00:19:46;8.00;;;4.40;;
58252;SDS011;44050;48.884;8.762;2023-02-12T00:22:17;8.30;;;5.43;;
58252;SDS011;44050;48.884;8.762;2023-02-12T00:24:50;12.25;;;7.97;;
58252;SDS011;44050;48.884;8.762;2023-02-12T00:27:21;10.32;;;7.15;;
58252;SDS011;44050;48.884;8.762;2023-02-12T00:29:55;10.70;;;5.63;;
58252;SDS011;44050;48.884;8.762;2023-02-12T00:34:57;5.67;;;3.93;;
58252;SDS011;44050;48.884;8.762;2023-02-12T00:37:28;6.40;;;5.13;;
58252;SDS011;44050;48.884;8.762;2023-02-12T00:39:58;6.22;;;3.92;;
58252;SDS011;44050;48.884;8.762;2023-02-12T00:42:29;6.50;;;5.15;;
58252;SDS011;44050;48.884;8.762;2023-02-12T00:45:00;4.87;;;3.90;;
58252;SDS011;44050;48.884;8.762;2023-02-12T00:47:34;5.07;;;4.35;;
58252;SDS011;44050;48.884;8.762;2023-02-12T00:50:05;9.75;;;4.72;;
58252;SDS011;44050;48.884;8.762;2023-02-12T00:52:37;10.23;;;5.95;;
58252;SDS011;44050;48.884;8.762;2023-02-12T00:55:08;5.35;;;3.92;;
58252;SDS011;44050;48.884;8.762;2023-02-12T00:57:38;8.90;;;4.68;;
58252;SDS011;44050;48.884;8.762;2023-02-12T01:00:09;6.30;;;4.33;;
58252;SDS011;44050;48.884;8.762;2023-02-12T01:02:40;8.77;;;4.38;;
58252;SDS011;44050;48.884;8.762;2023-02-12T01:05:11;6.13;;;5.22;;
58252;SDS011;44050;48.884;8.762;2023-02-12T01:07:42;11.93;;;6.30;;
58252;SDS011;44050;48.884;8.762;2023-02-12T01:10:12;6.47;;;5.70;;
58252;SDS011;44050;48.884;8.762;2023-02-12T01:12:43;7.60;;;5.77;;
58252;SDS011;44050;48.884;8.762;2023-02-12T01:15:14;9.87;;;5.93;;
58252;SDS011;44050;48.884;8.762;2023-02-12T01:17:45;13.32;;;6.72;;
58252;SDS011;44050;48.884;8.762;2023-02-12T01:20:17;7.43;;;6.53;;
58252;SDS011;44050;48.884;8.762;2023-02-12T01:22:48;9.32;;;6.75;;
58252;SDS011;44050;48.884;8.762;2023-02-12T01:25:20;10.32;;;6.10;;
58252;SDS011;44050;48.884;8.762;2023-02-12T01:27:54;8.77;;;6.53;;
58252;SDS011;44050;48.884;8.762;2023-02-12T01:30:24;9.20;;;5.25;;
58252;SDS011;44050;48.884;8.762;2023-02-12T01:32:55;7.65;;;5.00;;
58252;SDS011;44050;48.884;8.762;2023-02-12T01:35:26;11.10;;;5.57;;
58252;SDS011;44050;48.884;8.762;2023-02-12T01:37:57;7.38;;;5.68;;
58252;SDS011;44050;48.884;8.762;2023-02-12T01:40:29;10.43;;;5.97;;
58252;SDS011;44050;48.884;8.762;2023-02-12T01:43:00;7.90;;;5.72;;
58252;SDS011;44050;48.884;8.762;2023-02-12T01:48:06;13.60;;;8.25;;
58252;SDS011;44050;48.884;8.762;2023-02-12T01:50:37;9.23;;;6.10;;
58252;SDS011;44050;48.884;8.762;2023-02-12T01:53:08;8.57;;;7.10;;
58252;SDS011;44050;48.884;8.762;2023-02-12T01:55:39;10.27;;;7.65;;
58252;SDS011;44050;48.884;8.762;2023-02-12T01:58:11;7.82;;;7.03;;
58252;SDS011;44050;48.884;8.762;2023-02-12T02:00:42;9.27;;;7.32;;
58252;SDS011;44050;48.884;8.762;2023-02-12T02:03:14;10.10;;;7.68;;
58252;SDS011;44050;48.884;8.762;2023-02-12T02:08:22;12.13;;;8.98;;
58252;SDS011;44050;48.884;8.762;2023-02-12T02:10:53;13.75;;;8.02;;
58252;SDS011;44050;48.884;8.762;2023-02-12T02:13:23;14.38;;;9.40;;
58252;SDS011;44050;48.884;8.762;2023-02-12T02:16:20;11.23;;;7.55;;
58252;SDS011;44050;48.884;8.762;2023-02-12T02:18:58;13.88;;;8.38;;
58252;SDS011;44050;48.884;8.762;2023-02-12T02:27:00;12.55;;;9.85;;
58252;SDS011;44050;48.884;8.762;2023-02-12T02:32:28;17.75;;;10.23;;
58252;SDS011;44050;48.884;8.762;2023-02-12T02:40:12;12.25;;;10.68;;
58252;SDS011;44050;48.884;8.762;2023-02-12T02:45:27;15.73;;;10.43;;
58252;SDS011;44050;48.884;8.762;2023-02-12T02:48:02;11.30;;;9.85;;
58252;SDS011;44050;48.884;8.762;2023-02-12T02:50:34;12.40;;;8.50;;
58252;SDS011;44050;48.884;8.762;2023-02-12T02:53:08;16.92;;;9.38;;
58252;SDS011;44050;48.884;8.762;2023-02-12T02:55:42;9.52;;;7.95;;
58252;SDS011;44050;48.884;8.762;2023-02-12T03:06:37;14.63;;;11.02;;
58252;SDS011;44050;48.884;8.762;2023-02-12T03:09:17;11.00;;;7.78;;
58252;SDS011;44050;48.884;8.762;2023-02-12T03:11:49;10.80;;;8.25;;
58252;SDS011;44050;48.884;8.762;2023-02-12T03:14:33;9.32;;;7.47;;
58252;SDS011;44050;48.884;8.762;2023-02-12T03:17:08;11.43;;;9.02;;
58252;SDS011;44050;48.884;8.762;2023-02-12T03:19:41;12.65;;;8.43;;
58252;SDS011;44050;48.884;8.762;2023-02-12T03:22:16;11.07;;;8.85;;
58252;SDS011;44050;48.884;8.762;2023-02-12T03:29:49;11.00;;;8.03;;
58252;SDS011;44050;48.884;8.762;2023-02-12T03:32:44;15.00;;;9.07;;
58252;SDS011;44050;48.884;8.762;2023-02-12T03:35:20;11.43;;;7.18;;
58252;SDS011;44050;48.884;8.762;2023-02-12T03:40:27;12.63;;;8.30;;
58252;SDS011;44050;48.884;8.762;2023-02-12T03:43:07;8.40;;;7.53;;
58252;SDS011;44050;48.884;8.762;2023-02-12T03:48:21;11.60;;;9.02;;
58252;SDS011;44050;48.884;8.762;2023-02-12T03:51:37;12.57;;;8.60;;
58252;SDS011;44050;48.884;8.762;2023-02-12T03:53:47;10.85;;;8.93;;
58252;SDS011;44050;48.884;8.762;2023-02-12T03:56:19;12.30;;;8.73;;
58252;SDS011;44050;48.884;8.762;2023-02-12T03:58:52;16.35;;;9.13;;
58252;SDS011;44050;48.884;8.762;2023-02-12T04:01:22;8.05;;;6.78;;
58252;SDS011;44050;48.884;8.762;2023-02-12T04:03:54;7.22;;;5.78;;
58252;SDS011;44050;48.884;8.762;2023-02-12T04:06:25;15.52;;;9.27;;
58252;SDS011;44050;48.884;8.762;2023-02-12T04:08:57;13.00;;;8.95;;
58252;SDS011;44050;48.884;8.762;2023-02-12T04:11:35;11.13;;;7.40;;
58252;SDS011;44050;48.884;8.762;2023-02-12T04:14:28;15.00;;;10.52;;
58252;SDS011;44050;48.884;8.762;2023-02-12T04:22:49;10.35;;;7.70;;
58252;SDS011;44050;48.884;8.762;2023-02-12T04:30:44;15.65;;;8.40;;
58252;SDS011;44050;48.884;8.762;2023-02-12T04:33:17;12.40;;;7.65;;
58252;SDS011;44050;48.884;8.762;2023-02-12T04:35:50;7.60;;;4.78;;
58252;SDS011;44050;48.884;8.762;2023-02-12T04:38:23;8.00;;;6.13;;
58252;SDS011;44050;48.884;8.762;2023-02-12T04:40:54;8.55;;;6.40;;
58252;SDS011;44050;48.884;8.762;2023-02-12T04:43:29;7.05;;;6.40;;
58252;SDS011;44050;48.884;8.762;2023-02-12T04:46:01;11.60;;;7.03;;
58252;SDS011;44050;48.884;8.762;2023-02-12T04:51:03;8.93;;;6.07;;
58252;SDS011;44050;48.884;8.762;2023-02-12T04:53:34;11.40;;;6.55;;
58252;SDS011;44050;48.884;8.762;2023-02-12T04:56:05;8.00;;;6.95;;
58252;SDS011;44050;48.884;8.762;2023-02-12T04:58:38;9.98;;;6.45;;
58252;SDS011;44050;48.884;8.762;2023-02-12T05:03:40;9.60;;;6.90;;
58252;SDS011;44050;48.884;8.762;2023-02-12T05:06:10;9.68;;;6.00;;
58252;SDS011;44050;48.884;8.762;2023-02-12T05:08:41;10.52;;;5.68;;
58252;SDS011;44050;48.884;8.762;2023-02-12T05:11:12;6.70;;;6.00;;
58252;SDS011;44050;48.884;8.762;2023-02-12T05:13:43;9.90;;;6.88;;
58252;SDS011;44050;48.884;8.762;2023-02-12T05:16:13;5.88;;;5.07;;
58252;SDS011;44050;48.884;8.762;2023-02-12T05:18:44;8.48;;;5.35;;
58252;SDS011;44050;48.884;8.762;2023-02-12T05:21:15;6.45;;;5.75;;
58252;SDS011;44050;48.884;8.762;2023-02-12T05:23:46;11.25;;;6.03;;
58252;SDS011;44050;48.884;8.762;2023-02-12T05:26:18;9.63;;;6.82;;
58252;SDS011;44050;48.884;8.762;2023-02-12T05:28:49;9.45;;;7.20;;
58252;SDS011;44050;48.884;8.762;2023-02-12T05:31:20;10.75;;;6.75;;
58252;SDS011;44050;48.884;8.762;2023-02-12T05:33:51;13.07;;;9.00;;
58252;SDS011;44050;48.884;8.762;2023-02-12T05:36:22;8.52;;;6.68;;
58252;SDS011;44050;48.884;8.762;2023-02-12T05:38:55;17.05;;;8.27;;
58252;SDS011;44050;48.884;8.762;2023-02-12T05:41:27;11.15;;;7.45;;
58252;SDS011;44050;48.884;8.762;2023-02-12T05:43:57;16.27;;;8.02;;
58252;SDS011;44050;48.884;8.762;2023-02-12T05:46:31;11.37;;;7.20;;
58252;SDS011;44050;48.884;8.762;2023-02-12T05:49:02;8.75;;;7.60;;
58252;SDS011;44050;48.884;8.762;2023-02-12T05:51:33;10.85;;;7.47;;
58252;SDS011;44050;48.884;8.762;2023-02-12T05:54:04;11.50;;;7.00;;
58252;SDS011;44050;48.884;8.762;2023-02-12T05:59:07;8.33;;;7.30;;
58252;SDS011;44050;48.884;8.762;2023-02-12T06:01:39;8.77;;;7.50;;
58252;SDS011;44050;48.884;8.762;2023-02-12T06:04:15;10.18;;;7.60;;
58252;SDS011;44050;48.884;8.762;2023-02-12T06:06:46;7.72;;;6.95;;
58252;SDS011;44050;48.884;8.762;2023-02-12T06:09:16;10.30;;;6.47;;
58252;SDS011;44050;48.884;8.762;2023-02-12T06:11:48;11.40;;;7.07;;
58252;SDS011;44050;48.884;8.762;2023-02-12T06:14:19;10.82;;;8.25;;
58252;SDS011;44050;48.884;8.762;2023-02-12T06:16:50;7.78;;;6.35;;
58252;SDS011;44050;48.884;8.762;2023-02-12T06:19:21;7.47;;;6.75;;
58252;SDS011;44050;48.884;8.762;2023-02-12T06:21:51;10.95;;;8.13;;
58252;SDS011;44050;48.884;8.762;2023-02-12T06:24:22;9.43;;;6.00;;
58252;SDS011;44050;48.884;8.762;2023-02-12T06:26:53;10.38;;;6.20;;
58252;SDS011;44050;48.884;8.762;2023-02-12T06:29:24;8.73;;;6.70;;
58252;SDS011;44050;48.884;8.762;2023-02-12T06:31:54;10.50;;;6.38;;
58252;SDS011;44050;48.884;8.762;2023-02-12T06:34:25;11.05;;;7.22;;
58252;SDS011;44050;48.884;8.762;2023-02-12T06:36:56;7.85;;;5.35;;
58252;SDS011;44050;48.884;8.762;2023-02-12T06:39:26;11.65;;;7.18;;
58252;SDS011;44050;48.884;8.762;2023-02-12T06:41:57;9.88;;;7.55;;
58252;SDS011;44050;48.884;8.762;2023-02-12T06:44:28;8.88;;;5.68;;
58252;SDS011;44050;48.884;8.762;2023-02-12T06:46:59;8.80;;;5.68;;
58252;SDS011;44050;48.884;8.762;2023-02-12T06:49:29;11.88;;;7.90;;
58252;SDS011;44050;48.884;8.762;2023-02-12T06:52:00;7.00;;;5.73;;
58252;SDS011;44050;48.884;8.762;2023-02-12T06:54:31;16.67;;;7.65;;
58252;SDS011;44050;48.884;8.762;2023-02-12T06:57:02;14.55;;;7.85;;
58252;SDS011;44050;48.884;8.762;2023-02-12T06:59:33;10.57;;;5.57;;
58252;SDS011;44050;48.884;8.762;2023-02-12T07:02:03;8.88;;;5.82;;
58252;SDS011;44050;48.884;8.762;2023-02-12T07:04:36;16.15;;;9.05;;
58252;SDS011;44050;48.884;8.762;2023-02-12T07:07:07;7.03;;;6.32;;
58252;SDS011;44050;48.884;8.762;2023-02-12T07:09:38;8.77;;;6.07;;
58252;SDS011;44050;48.884;8.762;2023-02-12T07:12:08;8.65;;;6.43;;
58252;SDS011;44050;48.884;8.762;2023-02-12T07:14:39;8.65;;;6.75;;
58252;SDS011;44050;48.884;8.762;2023-02-12T07:17:10;8.88;;;7.35;;
58252;SDS011;44050;48.884;8.762;2023-02-12T07:19:41;7.05;;;4.93;;
58252;SDS011;44050;48.884;8.762;2023-02-12T07:22:11;9.20;;;8.02;;
58252;SDS011;44050;48.884;8.762;2023-02-12T07:24:42;8.90;;;7.82;;
58252;SDS011;44050;48.884;8.762;2023-02-12T07:27:13;6.03;;;4.72;;
58252;SDS011;44050;48.884;8.762;2023-02-12T07:29:44;8.60;;;6.15;;
58252;SDS011;44050;48.884;8.762;2023-02-12T07:32:14;7.30;;;6.25;;
58252;SDS011;44050;48.884;8.762;2023-02-12T07:34:45;13.13;;;7.27;;
58252;SDS011;44050;48.884;8.762;2023-02-12T07:37:16;8.10;;;6.47;;
58252;SDS011;44050;48.884;8.762;2023-02-12T07:39:51;13.20;;;8.13;;
58252;SDS011;44050;48.884;8.762;2023-02-12T07:42:22;9.30;;;8.27;;
58252;SDS011;44050;48.884;8.762;2023-02-12T07:44:54;13.48;;;8.65;;
58252;SDS011;44050;48.884;8.762;2023-02-12T07:47:24;12.18;;;9.10;;
58252;SDS011;44050;48.884;8.762;2023-02-12T07:49:55;14.95;;;8.50;;
58252;SDS011;44050;48.884;8.762;2023-02-12T07:52:26;9.93;;;8.30;;
58252;SDS011;44050;48.884;8.762;2023-02-12T07:54:56;15.65;;;10.77;;
58252;SDS011;44050;48.884;8.762;2023-02-12T07:57:30;13.27;;;11.10;;
58252;SDS011;44050;48.884;8.762;2023-02-12T08:00:10;12.50;;;8.23;;
58252;SDS011;44050;48.884;8.762;2023-02-12T08:02:49;16.10;;;10.82;;
58252;SDS011;44050;48.884;8.762;2023-02-12T08:05:20;11.88;;;9.55;;
58252;SDS011;44050;48.884;8.762;2023-02-12T08:07:51;13.40;;;9.32;;
58252;SDS011;44050;48.884;8.762;2023-02-12T08:10:21;14.05;;;8.57;;
58252;SDS011;44050;48.884;8.762;2023-02-12T08:12:53;16.38;;;9.15;;
58252;SDS011;44050;48.884;8.762;2023-02-12T08:15:23;16.83;;;10.35;;
58252;SDS011;44050;48.884;8.762;2023-02-12T08:17:54;11.88;;;9.02;;
58252;SDS011;44050;48.884;8.762;2023-02-12T08:20:25;12.00;;;9.60;;
58252;SDS011;44050;48.884;8.762;2023-02-12T08:22:56;13.40;;;9.45;;
58252;SDS011;44050;48.884;8.762;2023-02-12T08:27:58;10.60;;;7.73;;
58252;SDS011;44050;48.884;8.762;2023-02-12T08:30:28;8.30;;;6.00;;
58252;SDS011;44050;48.884;8.762;2023-02-12T08:32:59;14.45;;;5.47;;
58252;SDS011;44050;48.884;8.762;2023-02-12T08:35:30;8.07;;;6.43;;
58252;SDS011;44050;48.884;8.762;2023-02-12T08:38:00;13.60;;;9.02;;
58252;SDS011;44050;48.884;8.762;2023-02-12T08:40:31;15.20;;;8.70;;
58252;SDS011;44050;48.884;8.762;2023-02-12T08:43:02;12.05;;;8.80;;
58252;SDS011;44050;48.884;8.762;2023-02-12T08:45:33;11.02;;;9.07;;
58252;SDS011;44050;48.884;8.762;2023-02-12T08:48:04;13.35;;;9.18;;
58252;SDS011;44050;48.884;8.762;2023-02-12T08:50:34;12.95;;;9.85;;
58252;SDS011;44050;48.884;8.762;2023-02-12T08:53:05;16.27;;;9.50;;
58252;SDS011;44050;48.884;8.762;2023-02-12T08:55:37;12.82;;;9.00;;
58252;SDS011;44050;48.884;8.762;2023-02-12T08:58:18;12.77;;;8.25;;
58252;SDS011;44050;48.884;8.762;2023-02-12T09:00:49;10.32;;;7.65;;
58252;SDS011;44050;48.884;8.762;2023-02-12T09:03:19;10.60;;;8.15;;
58252;SDS011;44050;48.884;8.762;2023-02-12T09:06:12;8.35;;;7.55;;
58252;SDS011;44050;48.884;8.762;2023-02-12T09:08:42;8.50;;;7.25;;
58252;SDS011;44050;48.884;8.762;2023-02-12T09:11:13;12.52;;;8.20;;
58252;SDS011;44050;48.884;8.762;2023-02-12T09:13:47;15.13;;;10.00;;
58252;SDS011;44050;48.884;8.762;2023-02-12T09:16:18;10.65;;;8.80;;
58252;SDS011;44050;48.884;8.762;2023-02-12T09:18:49;10.15;;;7.13;;
58252;SDS011;44050;48.884;8.762;2023-02-12T09:21:20;9.43;;;6.85;;
58252;SDS011;44050;48.884;8.762;2023-02-12T09:23:51;8.75;;;6.90;;
58252;SDS011;44050;48.884;8.762;2023-02-12T09:26:35;9.57;;;6.47;;
58252;SDS011;44050;48.884;8.762;2023-02-12T09:32:07;7.80;;;6.50;;
58252;SDS011;44050;48.884;8.762;2023-02-12T09:34:38;13.32;;;8.38;;
58252;SDS011;44050;48.884;8.762;2023-02-12T09:37:09;11.02;;;8.82;;
58252;SDS011;44050;48.884;8.762;2023-02-12T09:39:50;7.45;;;6.03;;
58252;SDS011;44050;48.884;8.762;2023-02-12T09:45:23;8.27;;;6.50;;
58252;SDS011;44050;48.884;8.762;2023-02-12T09:47:58;11.30;;;7.90;;
58252;SDS011;44050;48.884;8.762;2023-02-12T09:50:42;11.38;;;6.88;;
58252;SDS011;44050;48.884;8.762;2023-02-12T09:53:16;7.55;;;5.93;;
58252;SDS011;44050;48.884;8.762;2023-02-12T09:55:47;9.82;;;6.50;;
58252;SDS011;44050;48.884;8.762;2023-02-12T09:58:22;5.25;;;4.57;;
58252;SDS011;44050;48.884;8.762;2023-02-12T10:00:56;6.88;;;4.35;;
58252;SDS011;44050;48.884;8.762;2023-02-12T10:03:28;4.65;;;4.28;;
58252;SDS011;44050;48.884;8.762;2023-02-12T10:26:02;5.85;;;4.50;;
58252;SDS011;44050;48.884;8.762;2023-02-12T10:28:10;5.32;;;4.82;;
58252;SDS011;44050;48.884;8.762;2023-02-12T10:30:43;4.50;;;4.05;;
58252;SDS011;44050;48.884;8.762;2023-02-12T10:33:59;4.53;;;3.25;;
58252;SDS011;44050;48.884;8.762;2023-02-12T10:36:15;4.03;;;3.40;;
58252;SDS011;44050;48.884;8.762;2023-02-12T10:38:49;3.97;;;3.63;;
58252;SDS011;44050;48.884;8.762;2023-02-12T10:41:21;4.97;;;3.80;;
58252;SDS011;44050;48.884;8.762;2023-02-12T10:43:52;3.92;;;3.40;;
58252;SDS011;44050;48.884;8.762;2023-02-12T10:46:23;3.53;;;3.25;;
58252;SDS011;44050;48.884;8.762;2023-02-12T10:48:54;3.00;;;2.78;;
58252;SDS011;44050;48.884;8.762;2023-02-12T10:54:33;4.32;;;3.85;;
58252;SDS011;44050;48.884;8.762;2023-02-12T10:57:06;3.83;;;3.35;;
58252;SDS011;44050;48.884;8.762;2023-02-12T10:59:38;4.00;;;3.60;;
58252;SDS011;44050;48.884;8.762;2023-02-12T11:04:39;2.43;;;2.07;;
58252;SDS011;44050;48.884;8.762;2023-02-12T11:07:10;3.20;;;2.88;;
58252;SDS011;44050;48.884;8.762;2023-02-12T11:09:44;3.25;;;2.95;;
58252;SDS011;44050;48.884;8.762;2023-02-12T11:12:19;3.38;;;3.10;;
58252;SDS011;44050;48.884;8.762;2023-02-12T11:14:51;4.07;;;2.35;;
58252;SDS011;44050;48.884;8.762;2023-02-12T11:17:24;3.22;;;2.75;;
58252;SDS011;44050;48.884;8.762;2023-02-12T11:23:04;7.00;;;3.75;;
58252;SDS011;44050;48.884;8.762;2023-02-12T11:25:36;4.82;;;4.32;;
58252;SDS011;44050;48.884;8.762;2023-02-12T11:28:15;3.65;;;3.30;;
58252;SDS011;44050;48.884;8.762;2023-02-12T11:30:53;5.40;;;4.60;;
58252;SDS011;44050;48.884;8.762;2023-02-12T11:33:29;4.20;;;3.78;;
58252;SDS011;44050;48.884;8.762;2023-02-12T11:38:38;5.10;;;4.70;;
58252;SDS011;44050;48.884;8.762;2023-02-12T11:41:26;5.28;;;3.90;;
58252;SDS011;44050;48.884;8.762;2023-02-12T11:44:01;3.40;;;3.07;;
58252;SDS011;44050;48.884;8.762;2023-02-12T11:46:32;4.70;;;3.47;;
58252;SDS011;44050;48.884;8.762;2023-02-12T11:49:03;3.83;;;3.45;;
58252;SDS011;44050;48.884;8.762;2023-02-12T11:51:35;5.25;;;4.18;;
58252;SDS011;44050;48.884;8.762;2023-02-12T11:54:14;4.00;;;3.55;;
58252;SDS011;44050;48.884;8.762;2023-02-12T11:56:47;8.43;;;4.28;;
58252;SDS011;44050;48.884;8.762;2023-02-12T11:59:34;5.10;;;4.60;;
58252;SDS011;44050;48.884;8.762;2023-02-12T12:02:15;6.68;;;4.65;;
58252;SDS011;44050;48.884;8.762;2023-02-12T12:04:48;4.97;;;3.83;;
58252;SDS011;44050;48.884;8.762;2023-02-12T12:07:22;5.22;;;4.28;;
58252;SDS011;44050;48.884;8.762;2023-02-12T12:10:06;5.22;;;4.40;;
58252;SDS011;44050;48.884;8.762;2023-02-12T12:12:50;4.70;;;4.30;;
58252;SDS011;44050;48.884;8.762;2023-02-12T12:15:25;4.97;;;4.50;;
58252;SDS011;44050;48.884;8.762;2023-02-12T12:18:20;4.72;;;3.28;;
58252;SDS011;44050;48.884;8.762;2023-02-12T12:26:41;3.88;;;3.47;;
58252;SDS011;44050;48.884;8.762;2023-02-12T12:29:21;6.07;;;4.28;;
58252;SDS011;44050;48.884;8.762;2023-02-12T12:31:57;6.32;;;4.30;;
58252;SDS011;44050;48.884;8.762;2023-02-12T12:34:30;8.38;;;5.72;;
58252;SDS011;44050;48.884;8.762;2023-02-12T12:37:18;5.32;;;4.43;;
58252;SDS011;44050;48.884;8.762;2023-02-12T12:40:03;6.65;;;4.25;;
58252;SDS011;44050;48.884;8.762;2023-02-12T12:47:55;6.18;;;4.25;;
58252;SDS011;44050;48.884;8.762;2023-02-12T12:55:53;7.53;;;4.95;;
58252;SDS011;44050;48.884;8.762;2023-02-12T13:01:35;8.57;;;5.28;;
58252;SDS011;44050;48.884;8.762;2023-02-12T13:12:25;5.72;;;4.85;;
58252;SDS011;44050;48.884;8.762;2023-02-12T13:15:20;6.75;;;4.50;;
58252;SDS011;44050;48.884;8.762;2023-02-12T13:23:13;4.50;;;3.95;;
58252;SDS011;44050;48.884;8.762;2023-02-12T13:28:30;5.13;;;3.53;;
58252;SDS011;44050;48.884;8.762;2023-02-12T13:31:05;4.78;;;4.35;;
58252;SDS011;44050;48.884;8.762;2023-02-12T13:33:41;4.82;;;4.20;;
58252;SDS011;44050;48.884;8.762;2023-02-12T13:36:13;4.88;;;4.03;;
58252;SDS011;44050;48.884;8.762;2023-02-12T13:41:14;5.50;;;3.37;;
58252;SDS011;44050;48.884;8.762;2023-02-12T13:51:46;3.17;;;1.90;;
58252;SDS011;44050;48.884;8.762;2023-02-12T13:54:24;3.53;;;2.60;;
58252;SDS011;44050;48.884;8.762;2023-02-12T13:57:00;2.40;;;1.85;;
58252;SDS011;44050;48.884;8.762;2023-02-12T14:04:44;1.95;;;1.80;;
58252;SDS011;44050;48.884;8.762;2023-02-12T14:07:15;2.03;;;1.67;;
58252;SDS011;44050;48.884;8.762;2023-02-12T14:27:56;4.30;;;3.55;;
58252;SDS011;44050;48.884;8.762;2023-02-12T14:33:20;2.88;;;2.63;;
58252;SDS011;44050;48.884;8.762;2023-02-12T14:36:11;2.47;;;1.95;;
58252;SDS011;44050;48.884;8.762;2023-02-12T14:41:24;1.98;;;1.73;;
58252;SDS011;44050;48.884;8.762;2023-02-12T14:46:48;2.72;;;2.08;;
58252;SDS011;44050;48.884;8.762;2023-02-12T14:54:56;2.95;;;2.33;;
58252;SDS011;44050;48.884;8.762;2023-02-12T14:57:38;2.50;;;1.52;;
58252;SDS011;44050;48.884;8.762;2023-02-12T15:02:53;2.17;;;2.00;;
58252;SDS011;44050;48.884;8.762;2023-02-12T15:05:26;2.78;;;1.73;;
58252;SDS011;44050;48.884;8.762;2023-02-12T15:08:05;2.97;;;2.13;;
58252;SDS011;44050;48.884;8.762;2023-02-12T15:10:45;4.57;;;2.80;;
58252;SDS011;44050;48.884;8.762;2023-02-12T15:13:23;2.55;;;1.77;;
58252;SDS011;44050;48.884;8.762;2023-02-12T15:16:02;1.67;;;1.58;;
58252;SDS011;44050;48.884;8.762;2023-02-12T15:21:29;2.00;;;1.80;;
58252;SDS011;44050;48.884;8.762;2023-02-12T15:26:35;2.40;;;2.20;;
58252;SDS011;44050;48.884;8.762;2023-02-12T15:29:19;4.07;;;2.13;;
58252;SDS011;44050;48.884;8.762;2023-02-12T15:31:51;2.15;;;1.92;;
58252;SDS011;44050;48.884;8.762;2023-02-12T15:34:24;1.63;;;1.52;;
58252;SDS011;44050;48.884;8.762;2023-02-12T15:36:57;2.85;;;2.65;;
58252;SDS011;44050;48.884;8.762;2023-02-12T15:39:47;2.42;;;2.22;;
58252;SDS011;44050;48.884;8.762;2023-02-12T15:47:37;2.75;;;2.55;;
58252;SDS011;44050;48.884;8.762;2023-02-12T15:50:15;1.80;;;1.70;;
58252;SDS011;44050;48.884;8.762;2023-02-12T15:52:46;2.90;;;2.17;;
58252;SDS011;44050;48.884;8.762;2023-02-12T15:55:18;1.92;;;1.73;;
58252;SDS011;44050;48.884;8.762;2023-02-12T15:57:50;2.60;;;1.35;;
58252;SDS011;44050;48.884;8.762;2023-02-12T16:00:26;3.05;;;2.22;;
58252;SDS011;44050;48.884;8.762;2023-02-12T16:02:57;2.50;;;2.30;;
58252;SDS011;44050;48.884;8.762;2023-02-12T16:05:28;3.00;;;2.08;;
58252;SDS011;44050;48.884;8.762;2023-02-12T16:07:59;3.38;;;1.88;;
58252;SDS011;44050;48.884;8.762;2023-02-12T16:10:42;2.13;;;1.98;;
58252;SDS011;44050;48.884;8.762;2023-02-12T16:13:15;3.55;;;2.47;;
58252;SDS011;44050;48.884;8.762;2023-02-12T16:16:01;2.28;;;1.88;;
58252;SDS011;44050;48.884;8.762;2023-02-12T16:18:32;2.38;;;2.17;;
58252;SDS011;44050;48.884;8.762;2023-02-12T16:23:44;2.08;;;1.90;;
58252;SDS011;44050;48.884;8.762;2023-02-12T16:26:19;2.08;;;1.88;;
58252;SDS011;44050;48.884;8.762;2023-02-12T16:28:54;1.80;;;1.70;;
58252;SDS011;44050;48.884;8.762;2023-02-12T16:31:26;6.10;;;3.95;;
58252;SDS011;44050;48.884;8.762;2023-02-12T16:33:57;5.55;;;2.92;;
58252;SDS011;44050;48.884;8.762;2023-02-12T16:36:29;4.45;;;4.05;;
58252;SDS011;44050;48.884;8.762;2023-02-12T16:39:02;5.47;;;4.15;;
58252;SDS011;44050;48.884;8.762;2023-02-12T16:41:33;4.32;;;3.92;;
58252;SDS011;44050;48.884;8.762;2023-02-12T16:46:48;5.97;;;4.00;;
58252;SDS011;44050;48.884;8.762;2023-02-12T16:49:20;4.68;;;3.72;;
58252;SDS011;44050;48.884;8.762;2023-02-12T16:51:51;4.70;;;4.38;;
58252;SDS011;44050;48.884;8.762;2023-02-12T16:54:26;3.03;;;2.72;;
58252;SDS011;44050;48.884;8.762;2023-02-12T16:56:57;3.40;;;2.92;;
58252;SDS011;44050;48.884;8.762;2023-02-12T16:59:29;3.40;;;2.95;;
58252;SDS011;44050;48.884;8.762;2023-02-12T17:02:01;3.03;;;2.83;;
58252;SDS011;44050;48.884;8.762;2023-02-12T17:04:32;4.30;;;2.88;;
58252;SDS011;44050;48.884;8.762;2023-02-12T17:07:03;5.20;;;3.60;;
58252;SDS011;44050;48.884;8.762;2023-02-12T17:09:34;3.45;;;3.15;;
58252;SDS011;44050;48.884;8.762;2023-02-12T17:12:04;2.63;;;2.30;;
58252;SDS011;44050;48.884;8.762;2023-02-12T17:14:35;3.22;;;2.53;;
58252;SDS011;44050;48.884;8.762;2023-02-12T17:17:06;3.05;;;2.83;;
58252;SDS011;44050;48.884;8.762;2023-02-12T17:19:37;4.20;;;3.75;;
58252;SDS011;44050;48.884;8.762;2023-02-12T17:22:13;12.63;;;6.03;;
58252;SDS011;44050;48.884;8.762;2023-02-12T17:24:46;4.60;;;4.00;;
58252;SDS011;44050;48.884;8.762;2023-02-12T17:27:20;5.90;;;3.33;;
58252;SDS011;44050;48.884;8.762;2023-02-12T17:29:51;4.18;;;3.72;;
58252;SDS011;44050;48.884;8.762;2023-02-12T17:32:22;2.83;;;2.55;;
58252;SDS011;44050;48.884;8.762;2023-02-12T17:34:55;3.00;;;2.58;;
58252;SDS011;44050;48.884;8.762;2023-02-12T17:37:26;1.85;;;1.70;;
58252;SDS011;44050;48.884;8.762;2023-02-12T17:39:57;2.33;;;2.13;;
58252;SDS011;44050;48.884;8.762;2023-02-12T17:42:27;4.63;;;2.03;;
58252;SDS011;44050;48.884;8.762;2023-02-12T17:44:58;2.35;;;2.22;;
58252;SDS011;44050;48.884;8.762;2023-02-12T17:47:29;2.50;;;2.30;;
58252;SDS011;44050;48.884;8.762;2023-02-12T17:50:00;2.72;;;2.53;;
58252;SDS011;44050;48.884;8.762;2023-02-12T17:52:32;3.08;;;2.78;;
58252;SDS011;44050;48.884;8.762;2023-02-12T17:55:03;1.65;;;1.55;;
58252;SDS011;44050;48.884;8.762;2023-02-12T17:57:34;1.83;;;1.73;;
58252;SDS011;44050;48.884;8.762;2023-02-12T18:00:05;1.92;;;1.60;;
58252;SDS011;44050;48.884;8.762;2023-02-12T18:02:41;1.55;;;1.45;;
58252;SDS011;44050;48.884;8.762;2023-02-12T18:05:11;2.45;;;2.25;;
58252;SDS011;44050;48.884;8.762;2023-02-12T18:07:42;1.20;;;1.00;;
58252;SDS011;44050;48.884;8.762;2023-02-12T18:10:13;2.50;;;2.05;;
58252;SDS011;44050;48.884;8.762;2023-02-12T18:12:44;2.88;;;2.58;;
58252;SDS011;44050;48.884;8.762;2023-02-12T18:15:15;4.00;;;2.95;;
58252;SDS011;44050;48.884;8.762;2023-02-12T18:17:45;3.25;;;2.95;;
58252;SDS011;44050;48.884;8.762;2023-02-12T18:20:16;6.35;;;3.33;;
58252;SDS011;44050;48.884;8.762;2023-02-12T18:22:47;2.08;;;1.88;;
58252;SDS011;44050;48.884;8.762;2023-02-12T18:25:19;2.90;;;2.38;;
58252;SDS011;44050;48.884;8.762;2023-02-12T18:27:50;2.38;;;2.10;;
58252;SDS011;44050;48.884;8.762;2023-02-12T18:30:21;4.03;;;1.80;;
58252;SDS011;44050;48.884;8.762;2023-02-12T18:32:52;2.50;;;2.33;;
58252;SDS011;44050;48.884;8.762;2023-02-12T18:35:22;3.38;;;2.80;;
58252;SDS011;44050;48.884;8.762;2023-02-12T18:37:53;2.90;;;2.65;;
58252;SDS011;44050;48.884;8.762;2023-02-12T18:40:24;2.42;;;2.22;;
58252;SDS011;44050;48.884;8.762;2023-02-12T18:42:55;3.58;;;1.80;;